sensor_id;sensor_type;location;lat;lon;timestamp;pressure;altitude;pressure_sealevel;temperature;humidity
51496;BME280;37572;52.094;4.870;2023-10-13T00:01:55;101128.66;;;21.32;64.85
51496;BME280;37572;52.094;4.870;2023-10-13T00:04:21;101128.66;;;21.32;64.72
51496;BME280;37572;52.094;4.870;2023-10-13T00:06:50;101126.53;;;21.34;64.78
51496;BME280;37572;52.094;4.870;2023-10-13T00:09:16;101122.78;;;21.35;64.78
51496;BME280;37572;52.094;4.870;2023-10-13T00:11:42;101128.00;;;21.37;65.15
51496;BME280;37572;52.094;4.870;2023-10-13T00:14:13;101126.09;;;21.37;64.58
51496;BME280;37572;52.094;4.870;2023-10-13T00:16:43;101124.22;;;21.38;64.65
51496;BME280;37572;52.094;4.870;2023-10-13T00:19:26;101125.06;;;21.38;64.59
51496;BME280;37572;52.094;4.870;2023-10-13T00:21:52;101121.06;;;21.41;64.80
51496;BME280;37572;52.094;4.870;2023-10-13T00:24:20;101118.56;;;21.39;64.77
51496;BME280;37572;52.094;4.870;2023-10-13T00:26:48;101113.38;;;21.38;64.53
51496;BME280;37572;52.094;4.870;2023-10-13T00:29:15;101107.56;;;21.34;64.65
51496;BME280;37572;52.094;4.870;2023-10-13T00:31:43;101106.97;;;21.32;64.76
51496;BME280;37572;52.094;4.870;2023-10-13T00:34:09;101111.78;;;21.30;64.96
51496;BME280;37572;52.094;4.870;2023-10-13T00:36:45;101104.69;;;21.29;65.03
51496;BME280;37572;52.094;4.870;2023-10-13T00:39:15;101099.50;;;21.28;64.64
51496;BME280;37572;52.094;4.870;2023-10-13T00:41:44;101095.97;;;21.27;64.85
51496;BME280;37572;52.094;4.870;2023-10-13T00:44:17;101097.84;;;21.26;65.08
51496;BME280;37572;52.094;4.870;2023-10-13T00:46:44;101089.09;;;21.24;65.03
51496;BME280;37572;52.094;4.870;2023-10-13T00:49:11;101087.25;;;21.25;65.15
51496;BME280;37572;52.094;4.870;2023-10-13T00:51:41;101084.28;;;21.26;64.80
51496;BME280;37572;52.094;4.870;2023-10-13T00:54:12;101069.94;;;21.26;64.95
51496;BME280;37572;52.094;4.870;2023-10-13T00:56:41;101067.81;;;21.28;65.12
51496;BME280;37572;52.094;4.870;2023-10-13T00:59:28;101070.75;;;21.26;64.89
51496;BME280;37572;52.094;4.870;2023-10-13T01:01:54;101067.81;;;21.28;65.06
51496;BME280;37572;52.094;4.870;2023-10-13T01:04:21;101054.28;;;21.28;65.13
51496;BME280;37572;52.094;4.870;2023-10-13T01:06:48;101059.09;;;21.26;65.11
51496;BME280;37572;52.094;4.870;2023-10-13T01:09:14;101058.06;;;21.27;65.28
51496;BME280;37572;52.094;4.870;2023-10-13T01:11:49;101047.00;;;21.29;65.23
51496;BME280;37572;52.094;4.870;2023-10-13T01:14:21;101049.28;;;21.32;65.10
51496;BME280;37572;52.094;4.870;2023-10-13T01:16:48;101044.69;;;21.32;64.82
51496;BME280;37572;52.094;4.870;2023-10-13T01:19:17;101036.56;;;21.32;64.84
51496;BME280;37572;52.094;4.870;2023-10-13T01:21:44;101029.84;;;21.35;65.01
51496;BME280;37572;52.094;4.870;2023-10-13T01:24:10;101030.50;;;21.37;65.09
51496;BME280;37572;52.094;4.870;2023-10-13T01:26:42;101025.66;;;21.39;65.11
51496;BME280;37572;52.094;4.870;2023-10-13T01:29:08;101025.66;;;21.39;64.92
51496;BME280;37572;52.094;4.870;2023-10-13T01:31:39;101023.78;;;21.39;64.95
51496;BME280;37572;52.094;4.870;2023-10-13T01:34:13;101023.78;;;21.39;64.79
51496;BME280;37572;52.094;4.870;2023-10-13T01:36:39;101018.38;;;21.39;64.67
51496;BME280;37572;52.094;4.870;2023-10-13T01:39:06;101015.06;;;21.37;64.62
51496;BME280;37572;52.094;4.870;2023-10-13T01:41:31;101016.09;;;21.36;65.09
51496;BME280;37572;52.094;4.870;2023-10-13T01:43:57;101020.47;;;21.37;64.79
51496;BME280;37572;52.094;4.870;2023-10-13T01:46:22;101009.84;;;21.36;65.08
51496;BME280;37572;52.094;4.870;2023-10-13T01:48:47;101013.22;;;21.31;64.99
51496;BME280;37572;52.094;4.870;2023-10-13T01:51:13;101005.69;;;21.33;65.03
51496;BME280;37572;52.094;4.870;2023-10-13T01:53:39;101004.28;;;21.31;65.10
51496;BME280;37572;52.094;4.870;2023-10-13T01:56:07;100998.06;;;21.30;65.13
51496;BME280;37572;52.094;4.870;2023-10-13T01:58:39;100990.97;;;21.29;64.62
51496;BME280;37572;52.094;4.870;2023-10-13T02:01:09;100989.28;;;21.28;65.22
51496;BME280;37572;52.094;4.870;2023-10-13T02:03:35;100987.88;;;21.25;65.31
51496;BME280;37572;52.094;4.870;2023-10-13T02:06:06;100984.56;;;21.23;65.16
51496;BME280;37572;52.094;4.870;2023-10-13T02:08:32;100984.56;;;21.23;65.24
51496;BME280;37572;52.094;4.870;2023-10-13T02:10:57;100984.56;;;21.23;64.93
51496;BME280;37572;52.094;4.870;2023-10-13T02:13:25;100976.22;;;21.25;65.21
51496;BME280;37572;52.094;4.870;2023-10-13T02:15:56;100984.16;;;21.20;64.79
51496;BME280;37572;52.094;4.870;2023-10-13T02:18:23;100967.09;;;21.19;65.35
51496;BME280;37572;52.094;4.870;2023-10-13T02:20:56;100961.69;;;21.19;65.25
51496;BME280;37572;52.094;4.870;2023-10-13T02:23:23;100953.34;;;21.21;65.32
51496;BME280;37572;52.094;4.870;2023-10-13T02:25:49;100947.94;;;21.21;64.97
51496;BME280;37572;52.094;4.870;2023-10-13T02:28:25;100952.31;;;21.22;65.00
51496;BME280;37572;52.094;4.870;2023-10-13T02:30:54;100947.94;;;21.21;64.94
51496;BME280;37572;52.094;4.870;2023-10-13T02:33:22;100943.81;;;21.18;65.04
51496;BME280;37572;52.094;4.870;2023-10-13T02:35:55;100936.72;;;21.17;64.90
51496;BME280;37572;52.094;4.870;2023-10-13T02:38:21;100931.53;;;21.16;65.21
51496;BME280;37572;52.094;4.870;2023-10-13T02:41:18;100936.13;;;21.15;64.68
51496;BME280;37572;52.094;4.870;2023-10-13T02:43:50;100926.34;;;21.14;64.91
51496;BME280;37572;52.094;4.870;2023-10-13T02:46:16;100912.19;;;21.12;64.79
51496;BME280;37572;52.094;4.870;2023-10-13T02:48:42;100905.34;;;21.10;65.43
51496;BME280;37572;52.094;4.870;2023-10-13T02:51:11;100894.34;;;21.04;64.97
51496;BME280;37572;52.094;4.870;2023-10-13T02:53:44;100885.63;;;21.02;65.36
51496;BME280;37572;52.094;4.870;2023-10-13T02:56:18;100882.72;;;21.04;65.60
51496;BME280;37572;52.094;4.870;2023-10-13T02:58:50;100868.94;;;21.05;65.07
51496;BME280;37572;52.094;4.870;2023-10-13T03:01:22;100871.22;;;21.09;65.29
51496;BME280;37572;52.094;4.870;2023-10-13T03:03:54;100870.78;;;21.12;64.94
51496;BME280;37572;52.094;4.870;2023-10-13T03:06:22;100874.28;;;21.12;65.20
51496;BME280;37572;52.094;4.870;2023-10-13T03:08:50;100853.69;;;21.11;64.89
51496;BME280;37572;52.094;4.870;2023-10-13T03:11:16;100850.97;;;21.11;65.05
51496;BME280;37572;52.094;4.870;2023-10-13T03:13:47;100860.97;;;21.11;65.30
51496;BME280;37572;52.094;4.870;2023-10-13T03:16:15;100871.81;;;21.11;65.05
51496;BME280;37572;52.094;4.870;2023-10-13T03:18:43;100864.94;;;21.08;64.88
51496;BME280;37572;52.094;4.870;2023-10-13T03:21:17;100847.88;;;21.07;65.32
51496;BME280;37572;52.094;4.870;2023-10-13T03:23:54;100834.81;;;21.04;65.44
51496;BME280;37572;52.094;4.870;2023-10-13T03:26:19;100834.22;;;21.02;65.32
51496;BME280;37572;52.094;4.870;2023-10-13T03:28:46;100808.19;;;21.01;65.00
51496;BME280;37572;52.094;4.870;2023-10-13T03:31:18;100806.31;;;21.02;65.14
51496;BME280;37572;52.094;4.870;2023-10-13T03:33:43;100784.03;;;21.00;65.29
51496;BME280;37572;52.094;4.870;2023-10-13T03:36:11;100778.41;;;21.01;65.02
51496;BME280;37572;52.094;4.870;2023-10-13T03:38:56;100774.66;;;21.02;64.93
51496;BME280;37572;52.094;4.870;2023-10-13T03:41:22;100761.72;;;21.04;65.02
51496;BME280;37572;52.094;4.870;2023-10-13T03:43:49;100760.69;;;21.05;65.12
51496;BME280;37572;52.094;4.870;2023-10-13T03:46:32;100764.41;;;21.04;65.08
51496;BME280;37572;52.094;4.870;2023-10-13T03:48:58;100761.94;;;21.03;65.22
51496;BME280;37572;52.094;4.870;2023-10-13T03:51:26;100752.63;;;20.99;65.22
51496;BME280;37572;52.094;4.870;2023-10-13T03:53:56;100743.66;;;20.98;65.13
51496;BME280;37572;52.094;4.870;2023-10-13T03:56:27;100734.72;;;20.98;64.92
51496;BME280;37572;52.094;4.870;2023-10-13T03:59:06;100730.38;;;20.97;65.03
51496;BME280;37572;52.094;4.870;2023-10-13T04:01:34;100722.94;;;20.92;65.22
51496;BME280;37572;52.094;4.870;2023-10-13T04:04:15;100714.22;;;20.90;65.38
51496;BME280;37572;52.094;4.870;2023-10-13T04:06:54;100704.66;;;20.87;64.92
51496;BME280;37572;52.094;4.870;2023-10-13T04:09:39;100702.78;;;20.88;65.13
51496;BME280;37572;52.094;4.870;2023-10-13T04:12:06;100701.97;;;20.87;65.24
51496;BME280;37572;52.094;4.870;2023-10-13T04:14:47;100698.91;;;20.84;65.30
51496;BME280;37572;52.094;4.870;2023-10-13T04:17:30;100694.16;;;20.79;65.29
51496;BME280;37572;52.094;4.870;2023-10-13T04:20:05;100692.75;;;20.77;65.65
51496;BME280;37572;52.094;4.870;2023-10-13T04:22:32;100684.63;;;20.77;65.80
51496;BME280;37572;52.094;4.870;2023-10-13T04:27:58;100692.28;;;20.80;65.77
51496;BME280;37572;52.094;4.870;2023-10-13T04:30:40;100672.50;;;20.79;65.52
51496;BME280;37572;52.094;4.870;2023-10-13T04:33:17;100669.56;;;20.81;65.80
51496;BME280;37572;52.094;4.870;2023-10-13T04:36:05;100651.44;;;20.81;65.86
51496;BME280;37572;52.094;4.870;2023-10-13T04:39:00;100643.56;;;20.80;65.73
51496;BME280;37572;52.094;4.870;2023-10-13T04:41:38;100664.84;;;20.76;65.99
51496;BME280;37572;52.094;4.870;2023-10-13T04:44:11;100671.25;;;20.82;66.01
51496;BME280;37572;52.094;4.870;2023-10-13T04:47:09;100668.91;;;20.85;66.21
51496;BME280;37572;52.094;4.870;2023-10-13T04:49:40;100653.63;;;20.91;65.79
51496;BME280;37572;52.094;4.870;2023-10-13T04:52:09;100643.38;;;20.93;66.31
51496;BME280;37572;52.094;4.870;2023-10-13T04:57:23;100649.03;;;20.92;66.51
51496;BME280;37572;52.094;4.870;2023-10-13T05:00:08;100641.53;;;20.94;66.16
51496;BME280;37572;52.094;4.870;2023-10-13T05:05:08;100648.47;;;21.01;66.68
51496;BME280;37572;52.094;4.870;2023-10-13T05:07:40;100643.47;;;21.05;66.49
51496;BME280;37572;52.094;4.870;2023-10-13T05:10:24;100648.63;;;21.06;66.84
51496;BME280;37572;52.094;4.870;2023-10-13T05:13:08;100639.81;;;21.11;66.73
51496;BME280;37572;52.094;4.870;2023-10-13T05:15:52;100630.88;;;21.11;66.99
51496;BME280;37572;52.094;4.870;2023-10-13T05:18:36;100619.38;;;21.15;66.75
51496;BME280;37572;52.094;4.870;2023-10-13T05:21:20;100627.03;;;21.18;66.38
51496;BME280;37572;52.094;4.870;2023-10-13T05:24:05;100624.69;;;21.22;66.56
51496;BME280;37572;52.094;4.870;2023-10-13T05:26:49;100608.22;;;21.23;66.62
51496;BME280;37572;52.094;4.870;2023-10-13T05:29:33;100608.78;;;21.25;66.48
51496;BME280;37572;52.094;4.870;2023-10-13T05:32:17;100598.78;;;21.26;66.34
51496;BME280;37572;52.094;4.870;2023-10-13T05:35:01;100597.16;;;21.25;66.10
51496;BME280;37572;52.094;4.870;2023-10-13T05:37:45;100596.28;;;21.24;65.40
51496;BME280;37572;52.094;4.870;2023-10-13T05:40:28;100594.66;;;21.23;65.44
51496;BME280;37572;52.094;4.870;2023-10-13T05:43:12;100588.63;;;21.21;65.19
51496;BME280;37572;52.094;4.870;2023-10-13T05:46:01;100594.28;;;21.20;65.12
51496;BME280;37572;52.094;4.870;2023-10-13T05:48:59;100583.94;;;21.17;64.71
51496;BME280;37572;52.094;4.870;2023-10-13T05:51:30;100577.91;;;21.15;64.82
51496;BME280;37572;52.094;4.870;2023-10-13T05:54:10;100577.31;;;21.13;64.72
51496;BME280;37572;52.094;4.870;2023-10-13T05:56:59;100576.50;;;21.12;64.28
51496;BME280;37572;52.094;4.870;2023-10-13T05:59:43;100567.78;;;21.10;64.13
51496;BME280;37572;52.094;4.870;2023-10-13T06:02:27;100564.25;;;21.10;64.24
51496;BME280;37572;52.094;4.870;2023-10-13T06:05:12;100562.38;;;21.10;64.42
51496;BME280;37572;52.094;4.870;2023-10-13T06:07:57;100564.88;;;21.12;64.31
51496;BME280;37572;52.094;4.870;2023-10-13T06:10:42;100559.44;;;21.12;64.52
51496;BME280;37572;52.094;4.870;2023-10-13T06:13:26;100558.84;;;21.10;64.46
51496;BME280;37572;52.094;4.870;2023-10-13T06:16:16;100546.97;;;21.11;64.58
51496;BME280;37572;52.094;4.870;2023-10-13T06:19:00;100541.53;;;21.11;64.70
51496;BME280;37572;52.094;4.870;2023-10-13T06:21:45;100535.66;;;21.14;64.76
51496;BME280;37572;52.094;4.870;2023-10-13T06:24:29;100530.59;;;21.17;64.62
51496;BME280;37572;52.094;4.870;2023-10-13T06:27:14;100528.25;;;21.21;64.76
51496;BME280;37572;52.094;4.870;2023-10-13T06:29:58;100521.56;;;21.23;64.64
51496;BME280;37572;52.094;4.870;2023-10-13T06:32:23;100524.97;;;21.31;64.71
51496;BME280;37572;52.094;4.870;2023-10-13T06:34:55;100519.56;;;21.31;64.62
51496;BME280;37572;52.094;4.870;2023-10-13T06:37:30;100514.97;;;21.31;65.01
51496;BME280;37572;52.094;4.870;2023-10-13T06:39:57;100510.63;;;21.30;65.44
51496;BME280;37572;52.094;4.870;2023-10-13T06:42:33;100512.03;;;21.33;65.31
51496;BME280;37572;52.094;4.870;2023-10-13T06:45:08;100497.44;;;21.34;65.48
51496;BME280;37572;52.094;4.870;2023-10-13T06:47:35;100490.47;;;21.38;65.34
51496;BME280;37572;52.094;4.870;2023-10-13T06:50:06;100488.97;;;21.42;65.49
51496;BME280;37572;52.094;4.870;2023-10-13T06:52:41;100488.72;;;21.43;65.07
51496;BME280;37572;52.094;4.870;2023-10-13T06:55:07;100476.81;;;21.44;65.32
51496;BME280;37572;52.094;4.870;2023-10-13T06:57:33;100471.53;;;21.50;65.64
51496;BME280;37572;52.094;4.870;2023-10-13T07:00:02;100465.88;;;21.51;65.47
51496;BME280;37572;52.094;4.870;2023-10-13T07:02:33;100465.19;;;21.56;65.91
51496;BME280;37572;52.094;4.870;2023-10-13T07:04:59;100466.38;;;21.60;65.40
51496;BME280;37572;52.094;4.870;2023-10-13T07:07:36;100451.03;;;21.66;65.61
51496;BME280;37572;52.094;4.870;2023-10-13T07:10:07;100462.44;;;21.68;65.92
51496;BME280;37572;52.094;4.870;2023-10-13T07:12:33;100467.06;;;21.67;66.15
51496;BME280;37572;52.094;4.870;2023-10-13T07:14:58;100452.94;;;21.65;66.37
51496;BME280;37572;52.094;4.870;2023-10-13T07:17:37;100429.69;;;21.69;65.99
51496;BME280;37572;52.094;4.870;2023-10-13T07:20:07;100451.25;;;21.76;66.31
51496;BME280;37572;52.094;4.870;2023-10-13T07:22:51;100460.56;;;21.80;66.36
51496;BME280;37572;52.094;4.870;2023-10-13T07:25:29;100475.50;;;21.83;66.28
51496;BME280;37572;52.094;4.870;2023-10-13T07:28:00;100475.13;;;21.91;65.83
51496;BME280;37572;52.094;4.870;2023-10-13T07:30:26;100459.22;;;21.94;65.75
51496;BME280;37572;52.094;4.870;2023-10-13T07:32:52;100479.38;;;21.98;65.55
51496;BME280;37572;52.094;4.870;2023-10-13T07:35:19;100477.00;;;22.02;65.47
51496;BME280;37572;52.094;4.870;2023-10-13T07:37:46;100464.00;;;22.04;65.76
51496;BME280;37572;52.094;4.870;2023-10-13T07:40:17;100461.41;;;22.09;65.73
51496;BME280;37572;52.094;4.870;2023-10-13T07:42:55;100464.69;;;22.11;65.55
51496;BME280;37572;52.094;4.870;2023-10-13T07:45:29;100466.59;;;22.11;65.61
51496;BME280;37572;52.094;4.870;2023-10-13T07:48:11;100458.22;;;22.12;65.58
51496;BME280;37572;52.094;4.870;2023-10-13T07:50:58;100457.63;;;22.10;65.14
51496;BME280;37572;52.094;4.870;2023-10-13T07:53:26;100455.25;;;22.14;65.51
51496;BME280;37572;52.094;4.870;2023-10-13T07:55:54;100449.13;;;22.18;65.13
51496;BME280;37572;52.094;4.870;2023-10-13T07:58:21;100454.53;;;22.18;65.45
51496;BME280;37572;52.094;4.870;2023-10-13T08:00:50;100443.56;;;22.25;65.01
51496;BME280;37572;52.094;4.870;2023-10-13T08:03:20;100447.44;;;22.29;65.08
51496;BME280;37572;52.094;4.870;2023-10-13T08:06:00;100449.44;;;22.34;64.93
51496;BME280;37572;52.094;4.870;2023-10-13T08:08:44;100436.19;;;22.38;64.87
51496;BME280;37572;52.094;4.870;2023-10-13T08:11:19;100430.53;;;22.39;64.86
51496;BME280;37572;52.094;4.870;2023-10-13T08:13:57;100422.41;;;22.39;64.72
51496;BME280;37572;52.094;4.870;2023-10-13T08:16:37;100422.72;;;22.43;64.47
51496;BME280;37572;52.094;4.870;2023-10-13T08:19:22;100433.09;;;22.46;64.31
51496;BME280;37572;52.094;4.870;2023-10-13T08:21:58;100417.63;;;22.46;64.07
51496;BME280;37572;52.094;4.870;2023-10-13T08:24:25;100416.41;;;22.54;64.01
51496;BME280;37572;52.094;4.870;2023-10-13T08:26:54;100400.22;;;22.59;63.76
51496;BME280;37572;52.094;4.870;2023-10-13T08:29:46;100402.78;;;22.66;63.64
51496;BME280;37572;52.094;4.870;2023-10-13T08:32:34;100412.97;;;22.76;63.35
51496;BME280;37572;52.094;4.870;2023-10-13T08:35:00;100405.72;;;22.81;63.06
51496;BME280;37572;52.094;4.870;2023-10-13T08:37:32;100395.97;;;22.80;62.88
51496;BME280;37572;52.094;4.870;2023-10-13T08:39:59;100392.25;;;22.86;62.56
51496;BME280;37572;52.094;4.870;2023-10-13T08:42:34;100395.88;;;22.92;62.78
51496;BME280;37572;52.094;4.870;2023-10-13T08:45:09;100394.78;;;22.93;62.57
51496;BME280;37572;52.094;4.870;2023-10-13T08:47:53;100387.72;;;22.92;62.21
51496;BME280;37572;52.094;4.870;2023-10-13T08:50:22;100389.34;;;22.93;61.95
51496;BME280;37572;52.094;4.870;2023-10-13T08:53:14;100396.13;;;22.90;62.30
51496;BME280;37572;52.094;4.870;2023-10-13T08:56:06;100395.56;;;22.88;61.93
51496;BME280;37572;52.094;4.870;2023-10-13T08:58:56;100386.25;;;22.84;61.85
51496;BME280;37572;52.094;4.870;2023-10-13T09:01:39;100385.50;;;22.89;61.96
51496;BME280;37572;52.094;4.870;2023-10-13T09:04:23;100391.75;;;22.89;61.27
51496;BME280;37572;52.094;4.870;2023-10-13T09:07:03;100386.56;;;22.88;61.20
51496;BME280;37572;52.094;4.870;2023-10-13T09:12:28;100370.03;;;22.89;61.54
51496;BME280;37572;52.094;4.870;2023-10-13T09:14:56;100371.75;;;22.96;61.14
51496;BME280;37572;52.094;4.870;2023-10-13T09:17:23;100374.22;;;22.97;61.06
51496;BME280;37572;52.094;4.870;2023-10-13T09:20:01;100361.03;;;23.06;60.52
51496;BME280;37572;52.094;4.870;2023-10-13T09:22:46;100364.09;;;23.09;60.47
51496;BME280;37572;52.094;4.870;2023-10-13T09:25:27;100349.28;;;23.17;60.51
51496;BME280;37572;52.094;4.870;2023-10-13T09:27:58;100357.25;;;23.24;60.03
51496;BME280;37572;52.094;4.870;2023-10-13T09:30:26;100341.53;;;23.26;59.57
51496;BME280;37572;52.094;4.870;2023-10-13T09:33:00;100336.09;;;23.26;59.56
51496;BME280;37572;52.094;4.870;2023-10-13T09:35:27;100348.66;;;23.32;59.36
51496;BME280;37572;52.094;4.870;2023-10-13T09:37:53;100342.25;;;23.38;59.42
51496;BME280;37572;52.094;4.870;2023-10-13T09:40:22;100337.38;;;23.40;59.62
51496;BME280;37572;52.094;4.870;2023-10-13T09:42:57;100324.91;;;23.44;59.35
51496;BME280;37572;52.094;4.870;2023-10-13T09:45:30;100325.56;;;23.52;59.17
51496;BME280;37572;52.094;4.870;2023-10-13T09:48:03;100313.03;;;23.51;58.54
51496;BME280;37572;52.094;4.870;2023-10-13T09:50:43;100309.25;;;23.52;58.52
51496;BME280;37572;52.094;4.870;2023-10-13T09:53:10;100312.03;;;23.57;58.25
51496;BME280;37572;52.094;4.870;2023-10-13T09:55:42;100317.50;;;23.62;58.15
51496;BME280;37572;52.094;4.870;2023-10-13T09:58:11;100302.06;;;23.68;58.31
51496;BME280;37572;52.094;4.870;2023-10-13T10:00:47;100302.63;;;23.70;57.51
51496;BME280;37572;52.094;4.870;2023-10-13T10:03:15;100306.19;;;23.70;57.56
51496;BME280;37572;52.094;4.870;2023-10-13T10:06:02;100310.88;;;23.75;57.85
51496;BME280;37572;52.094;4.870;2023-10-13T10:08:47;100311.97;;;23.79;57.31
51496;BME280;37572;52.094;4.870;2023-10-13T10:14:16;100292.00;;;23.90;57.64
51496;BME280;37572;52.094;4.870;2023-10-13T10:19:19;100299.13;;;23.96;57.09
51496;BME280;37572;52.094;4.870;2023-10-13T10:21:44;100295.88;;;23.99;56.36
51496;BME280;37572;52.094;4.870;2023-10-13T10:24:16;100280.75;;;24.09;56.54
51496;BME280;37572;52.094;4.870;2023-10-13T10:27:06;100289.00;;;24.19;56.16
51496;BME280;37572;52.094;4.870;2023-10-13T10:29:31;100289.63;;;24.31;56.19
51496;BME280;37572;52.094;4.870;2023-10-13T10:31:57;100280.72;;;24.41;55.63
51496;BME280;37572;52.094;4.870;2023-10-13T10:34:30;100277.81;;;24.53;55.63
51496;BME280;37572;52.094;4.870;2023-10-13T10:36:57;100273.56;;;24.62;55.04
51496;BME280;37572;52.094;4.870;2023-10-13T10:39:34;100273.03;;;24.65;54.36
51496;BME280;37572;52.094;4.870;2023-10-13T10:42:13;100275.25;;;24.73;54.33
51496;BME280;37572;52.094;4.870;2023-10-13T10:44:49;100258.94;;;24.73;53.74
51496;BME280;37572;52.094;4.870;2023-10-13T10:47:20;100266.00;;;24.74;54.03
51496;BME280;37572;52.094;4.870;2023-10-13T10:50:02;100262.72;;;24.72;54.15
51496;BME280;37572;52.094;4.870;2023-10-13T10:52:44;100247.75;;;24.70;54.16
51496;BME280;37572;52.094;4.870;2023-10-13T10:55:12;100246.94;;;24.74;54.55
51496;BME280;37572;52.094;4.870;2023-10-13T10:57:39;100264.13;;;24.75;54.24
51496;BME280;37572;52.094;4.870;2023-10-13T11:00:18;100245.06;;;24.75;54.54
51496;BME280;37572;52.094;4.870;2023-10-13T11:02:54;100252.66;;;24.73;54.22
51496;BME280;37572;52.094;4.870;2023-10-13T11:05:20;100246.41;;;24.72;54.36
51496;BME280;37572;52.094;4.870;2023-10-13T11:07:46;100225.13;;;24.69;54.48
51496;BME280;37572;52.094;4.870;2023-10-13T11:10:17;100220.28;;;24.71;54.33
51496;BME280;37572;52.094;4.870;2023-10-13T11:12:56;100211.81;;;24.73;54.54
51496;BME280;37572;52.094;4.870;2023-10-13T11:15:22;100205.53;;;24.67;53.75
51496;BME280;37572;52.094;4.870;2023-10-13T11:17:50;100208.00;;;24.69;53.62
51496;BME280;37572;52.094;4.870;2023-10-13T11:20:20;100211.00;;;24.67;52.93
51496;BME280;37572;52.094;4.870;2023-10-13T11:22:59;100212.41;;;24.75;53.23
51496;BME280;37572;52.094;4.870;2023-10-13T11:25:26;100226.03;;;24.80;52.93
51496;BME280;37572;52.094;4.870;2023-10-13T11:28:14;100194.75;;;24.93;52.68
51496;BME280;37572;52.094;4.870;2023-10-13T11:30:45;100196.69;;;25.03;52.20
51496;BME280;37572;52.094;4.870;2023-10-13T11:33:18;100211.72;;;25.16;52.38
51496;BME280;37572;52.094;4.870;2023-10-13T11:35:49;100189.72;;;25.27;51.57
51496;BME280;37572;52.094;4.870;2023-10-13T11:38:27;100186.47;;;25.30;51.07
51496;BME280;37572;52.094;4.870;2023-10-13T11:40:53;100194.09;;;25.28;50.66
51496;BME280;37572;52.094;4.870;2023-10-13T11:43:38;100204.19;;;25.33;50.62
51496;BME280;37572;52.094;4.870;2023-10-13T11:46:07;100192.44;;;25.33;50.51
51496;BME280;37572;52.094;4.870;2023-10-13T11:48:35;100199.00;;;25.32;49.77
51496;BME280;37572;52.094;4.870;2023-10-13T11:51:05;100198.44;;;25.35;50.13
51496;BME280;37572;52.094;4.870;2023-10-13T11:53:37;100196.81;;;25.34;49.69
51496;BME280;37572;52.094;4.870;2023-10-13T11:56:05;100214.53;;;25.36;50.15
51496;BME280;37572;52.094;4.870;2023-10-13T11:58:39;100202.25;;;25.28;49.38
51496;BME280;37572;52.094;4.870;2023-10-13T12:01:05;100203.28;;;25.22;49.75
51496;BME280;37572;52.094;4.870;2023-10-13T12:03:33;100203.56;;;25.21;50.00
51496;BME280;37572;52.094;4.870;2023-10-13T12:06:17;100215.84;;;25.23;50.44
51496;BME280;37572;52.094;4.870;2023-10-13T12:09:12;100201.94;;;25.20;50.12
51496;BME280;37572;52.094;4.870;2023-10-13T12:11:44;100205.75;;;25.19;50.06
51496;BME280;37572;52.094;4.870;2023-10-13T12:14:11;100191.31;;;25.18;49.83
51496;BME280;37572;52.094;4.870;2023-10-13T12:16:51;100190.47;;;25.18;50.06
51496;BME280;37572;52.094;4.870;2023-10-13T12:19:17;100198.94;;;25.21;49.99
51496;BME280;37572;52.094;4.870;2023-10-13T12:21:49;100195.94;;;25.23;49.30
51496;BME280;37572;52.094;4.870;2023-10-13T12:24:14;100202.00;;;25.30;49.63
51496;BME280;37572;52.094;4.870;2023-10-13T12:27:08;100190.84;;;25.32;49.62
51496;BME280;37572;52.094;4.870;2023-10-13T12:29:51;100190.84;;;25.32;49.78
51496;BME280;37572;52.094;4.870;2023-10-13T12:32:18;100187.53;;;25.29;49.23
51496;BME280;37572;52.094;4.870;2023-10-13T12:34:51;100198.44;;;25.29;49.17
51496;BME280;37572;52.094;4.870;2023-10-13T12:37:30;100182.34;;;25.28;49.61
51496;BME280;37572;52.094;4.870;2023-10-13T12:40:08;100184.50;;;25.26;49.45
51496;BME280;37572;52.094;4.870;2023-10-13T12:42:52;100180.97;;;25.25;49.91
51496;BME280;37572;52.094;4.870;2023-10-13T12:45:40;100183.47;;;25.27;49.97
51496;BME280;37572;52.094;4.870;2023-10-13T12:48:24;100183.69;;;25.25;50.16
51496;BME280;37572;52.094;4.870;2023-10-13T12:51:08;100181.50;;;25.22;50.34
51496;BME280;37572;52.094;4.870;2023-10-13T12:53:47;100191.59;;;25.17;50.73
51496;BME280;37572;52.094;4.870;2023-10-13T12:56:13;100185.00;;;25.12;50.78
51496;BME280;37572;52.094;4.870;2023-10-13T12:58:38;100190.44;;;25.07;51.23
51496;BME280;37572;52.094;4.870;2023-10-13T13:01:04;100192.09;;;25.03;51.39
51496;BME280;37572;52.094;4.870;2023-10-13T13:03:31;100188.50;;;24.98;51.54
51496;BME280;37572;52.094;4.870;2023-10-13T13:05:58;100176.81;;;24.97;51.65
51496;BME280;37572;52.094;4.870;2023-10-13T13:08:23;100160.19;;;24.93;51.84
51496;BME280;37572;52.094;4.870;2023-10-13T13:10:49;100161.53;;;24.91;51.68
51496;BME280;37572;52.094;4.870;2023-10-13T13:13:14;100164.78;;;24.88;52.22
51496;BME280;37572;52.094;4.870;2023-10-13T13:15:42;100158.25;;;24.84;52.37
51496;BME280;37572;52.094;4.870;2023-10-13T13:18:07;100177.28;;;24.79;52.57
51496;BME280;37572;52.094;4.870;2023-10-13T13:20:37;100172.34;;;24.70;52.85
51496;BME280;37572;52.094;4.870;2023-10-13T13:23:04;100174.50;;;24.63;53.09
51496;BME280;37572;52.094;4.870;2023-10-13T13:25:30;100173.66;;;24.58;53.16
51496;BME280;37572;52.094;4.870;2023-10-13T13:27:56;100155.69;;;24.56;53.30
51496;BME280;37572;52.094;4.870;2023-10-13T13:30:24;100160.31;;;24.56;53.36
51496;BME280;37572;52.094;4.870;2023-10-13T13:32:55;100155.34;;;24.53;53.11
51496;BME280;37572;52.094;4.870;2023-10-13T13:35:20;100154.00;;;24.50;53.44
51496;BME280;37572;52.094;4.870;2023-10-13T13:37:46;100156.47;;;24.52;53.18
51496;BME280;37572;52.094;4.870;2023-10-13T13:40:11;100160.53;;;24.54;53.29